createdAt,value
2023-04-21T00:02:58.261Z,71.02
2023-04-21T00:06:01.952Z,70.97
2023-04-21T00:09:05.738Z,70.62
2023-04-21T00:12:08.574Z,70.11
2023-04-21T00:15:11.539Z,70.26
2023-04-21T00:18:14.244Z,70.70
2023-04-21T00:21:17.997Z,71.36
2023-04-21T00:24:21.052Z,72.70
2023-04-21T00:27:23.790Z,72.39
2023-04-21T00:30:26.939Z,71.82
2023-04-21T00:33:30.190Z,71.80
2023-04-21T00:36:32.924Z,71.62
2023-04-21T00:39:35.889Z,70.65
2023-04-21T00:42:38.566Z,71.14
2023-04-21T00:45:41.560Z,72.62
2023-04-21T00:48:44.419Z,72.08
2023-04-21T00:51:47.508Z,71.93
2023-04-21T00:54:51.779Z,71.92
2023-04-21T00:57:56.171Z,71.80
2023-04-21T01:01:05.881Z,71.96
2023-04-21T01:04:19.889Z,72.45
2023-04-21T01:07:23.601Z,72.31
2023-04-21T01:10:26.705Z,72.34
2023-04-21T01:13:29.632Z,72.12
2023-04-21T01:16:33.990Z,72.63
2023-04-21T01:19:40.770Z,71.81
2023-04-21T01:22:45.197Z,71.22
2023-04-21T01:25:47.893Z,71.46
2023-04-21T01:28:50.777Z,72.55
2023-04-21T01:31:53.524Z,71.43
2023-04-21T01:34:57.325Z,72.00
2023-04-21T01:38:00.005Z,71.77
2023-04-21T01:41:04.060Z,71.09
2023-04-21T01:44:06.818Z,72.04
2023-04-21T01:47:09.462Z,72.44
2023-04-21T01:50:12.201Z,72.50
2023-04-21T01:53:17.181Z,71.89
2023-04-21T01:56:19.902Z,73.04
2023-04-21T01:59:22.581Z,71.62
2023-04-21T02:02:25.580Z,74.78
2023-04-21T02:05:28.391Z,77.20
2023-04-21T02:08:31.958Z,77.58
2023-04-21T02:11:37.999Z,77.94
2023-04-21T02:14:41.000Z,77.93
2023-04-21T02:17:45.356Z,77.92
2023-04-21T02:20:48.106Z,77.90
2023-04-21T02:23:51.654Z,78.10
2023-04-21T02:26:54.389Z,78.33
2023-04-21T02:29:56.985Z,77.95
2023-04-21T02:32:59.887Z,77.80
2023-04-21T02:36:02.777Z,76.48
2023-04-21T02:39:05.682Z,76.62
2023-04-21T02:42:08.396Z,76.69
2023-04-21T02:45:12.280Z,77.67
2023-04-21T02:48:15.232Z,77.34
2023-04-21T02:51:18.036Z,78.17
2023-04-21T02:54:20.811Z,78.43
2023-04-21T02:57:24.060Z,79.31
2023-04-21T03:00:27.169Z,79.98
2023-04-21T03:03:30.719Z,79.55
2023-04-21T03:06:34.329Z,79.96
2023-04-21T03:09:36.988Z,79.91
2023-04-21T03:12:39.862Z,79.95
2023-04-21T03:15:42.576Z,79.71
2023-04-21T03:18:46.714Z,79.31
2023-04-21T03:21:49.372Z,79.45
2023-04-21T03:24:52.169Z,80.28
2023-04-21T03:27:55.390Z,79.84
2023-04-21T03:30:58.015Z,79.17
2023-04-21T03:34:02.198Z,79.54
2023-04-21T03:37:05.635Z,77.60
2023-04-21T03:40:11.818Z,76.07
2023-04-21T03:43:14.663Z,76.13
2023-04-21T03:46:23.395Z,77.92
2023-04-21T03:49:26.188Z,78.68
2023-04-21T03:52:28.938Z,78.05
2023-04-21T03:55:31.757Z,78.14
2023-04-21T03:58:34.886Z,78.09
2023-04-21T04:01:37.827Z,76.67
2023-04-21T04:04:41.014Z,76.22
2023-04-21T04:07:43.861Z,76.86
2023-04-21T04:10:46.703Z,77.97
2023-04-21T04:13:49.374Z,77.91
2023-04-21T04:16:52.110Z,76.84
2023-04-21T04:19:55.043Z,76.20
2023-04-21T04:22:58.019Z,76.05
2023-04-21T04:26:02.101Z,75.22
2023-04-21T04:29:06.508Z,74.90
2023-04-21T04:32:11.429Z,74.99
2023-04-21T04:35:14.861Z,73.99
2023-04-21T04:38:17.601Z,73.68
2023-04-21T04:41:21.295Z,74.47
2023-04-21T04:44:26.180Z,75.29
2023-04-21T04:47:29.495Z,76.36
2023-04-21T04:50:32.226Z,77.98
2023-04-21T04:53:34.996Z,77.91
2023-04-21T04:56:38.192Z,77.35
2023-04-21T04:59:41.016Z,77.68
2023-04-21T05:02:43.858Z,77.63
2023-04-21T05:05:46.919Z,74.99
2023-04-21T05:08:49.921Z,74.24
2023-04-21T05:11:52.773Z,71.89
2023-04-21T05:14:55.529Z,70.19
2023-04-21T05:17:58.566Z,68.69
2023-04-21T05:21:01.668Z,67.47
2023-04-21T05:24:04.585Z,66.96
2023-04-21T05:27:07.801Z,65.57
2023-04-21T05:30:11.139Z,65.65
2023-04-21T05:33:13.928Z,65.58
2023-04-21T05:36:16.824Z,64.16
2023-04-21T05:39:19.678Z,64.71
2023-04-21T05:42:24.340Z,64.61
2023-04-21T05:45:27.100Z,64.40
2023-04-21T05:48:30.050Z,63.97
2023-04-21T05:51:33.035Z,62.91
2023-04-21T05:54:35.720Z,63.02
2023-04-21T05:57:38.470Z,61.65
2023-04-21T06:00:41.330Z,61.45
2023-04-21T06:03:44.397Z,60.49
2023-04-21T06:06:47.176Z,60.27
2023-04-21T06:09:52.963Z,58.64
2023-04-21T06:12:55.789Z,57.17
2023-04-21T06:15:58.616Z,57.23
2023-04-21T06:19:01.754Z,57.97
2023-04-21T06:22:04.663Z,56.86
2023-04-21T06:25:07.739Z,55.93
2023-04-21T06:28:10.742Z,54.90
2023-04-21T06:31:16.034Z,56.32
2023-04-21T06:34:20.595Z,53.92
2023-04-21T06:37:23.835Z,55.36
2023-04-21T06:40:26.939Z,53.82
2023-04-21T06:43:29.663Z,52.97
2023-04-21T06:46:32.633Z,53.81
2023-04-21T06:49:37.566Z,52.13
2023-04-21T06:52:40.642Z,52.38
2023-04-21T06:55:43.380Z,53.03
2023-04-21T06:58:47.412Z,51.00
2023-04-21T07:01:52.615Z,51.68
2023-04-21T07:04:55.740Z,49.80
2023-04-21T07:08:00.308Z,49.36
2023-04-21T07:11:03.503Z,50.84
2023-04-21T07:14:06.963Z,47.61
2023-04-21T07:17:09.710Z,47.43
2023-04-21T07:20:12.763Z,50.04
2023-04-21T07:23:15.760Z,49.53
2023-04-21T07:26:18.817Z,46.14
2023-04-21T07:29:21.778Z,49.35
2023-04-21T07:32:25.936Z,49.26
2023-04-21T07:35:28.719Z,48.80
2023-04-21T07:38:31.720Z,49.53
2023-04-21T07:41:34.606Z,49.16
2023-04-21T07:44:37.880Z,47.90
2023-04-21T07:47:40.664Z,44.69
2023-04-21T07:50:43.560Z,48.09
2023-04-21T07:53:46.625Z,46.64
2023-04-21T07:56:49.469Z,47.97
2023-04-21T07:59:52.437Z,45.30
2023-04-21T08:02:55.256Z,47.76
2023-04-21T08:05:58.490Z,45.87
2023-04-21T08:09:01.715Z,46.37
2023-04-21T08:12:04.895Z,45.19
2023-04-21T08:15:08.864Z,46.56
2023-04-21T08:18:11.883Z,45.87
2023-04-21T08:21:15.353Z,45.64
2023-04-21T08:24:18.940Z,42.71
2023-04-21T08:27:24.864Z,43.71
2023-04-21T08:30:28.803Z,45.11
2023-04-21T08:33:31.589Z,40.54
2023-04-21T08:36:34.789Z,43.95
2023-04-21T08:39:37.618Z,43.80
2023-04-21T08:42:40.608Z,44.86
2023-04-21T08:45:44.420Z,44.08
2023-04-21T08:48:48.073Z,40.17
2023-04-21T08:51:51.225Z,41.04
2023-04-21T08:54:55.938Z,41.46
2023-04-21T08:57:58.694Z,43.99
2023-04-21T09:01:01.607Z,44.68
2023-04-21T09:04:18.036Z,41.96
2023-04-21T09:07:47.318Z,40.37
2023-04-21T09:10:52.452Z,42.85
2023-04-21T09:13:58.555Z,41.45
2023-04-21T09:17:04.886Z,40.79
2023-04-21T09:20:14.905Z,39.77
2023-04-21T09:23:18.096Z,39.78
2023-04-21T09:26:25.027Z,40.44
2023-04-21T09:29:28.441Z,40.64
2023-04-21T09:32:40.908Z,37.83
2023-04-21T09:35:43.933Z,38.72
2023-04-21T09:42:11.532Z,38.11
2023-04-21T09:45:36.695Z,39.73
2023-04-21T09:48:44.899Z,38.23
2023-04-21T09:54:58.312Z,40.46
2023-04-21T09:58:01.826Z,41.23
2023-04-21T10:01:05.045Z,40.42
2023-04-21T10:04:08.179Z,37.44
2023-04-21T10:07:12.119Z,40.76
2023-04-21T10:10:24.588Z,37.03
2023-04-21T10:13:27.704Z,39.77
2023-04-21T10:16:30.627Z,39.20
2023-04-21T10:19:44.163Z,41.63
2023-04-21T10:22:57.911Z,41.36
2023-04-21T10:26:24.825Z,38.63
2023-04-21T10:29:44.157Z,40.51
2023-04-21T10:33:03.704Z,37.63
2023-04-21T10:36:07.772Z,40.62
2023-04-21T10:39:13.294Z,38.23
2023-04-21T10:42:15.970Z,40.14
2023-04-21T10:45:18.984Z,39.65
2023-04-21T10:48:23.015Z,40.25
2023-04-21T10:51:25.734Z,39.43
2023-04-21T10:54:53.127Z,37.48
2023-04-21T10:57:56.292Z,38.84
2023-04-21T11:00:59.470Z,39.10
2023-04-21T11:04:02.581Z,38.98
2023-04-21T11:07:05.971Z,39.03
2023-04-21T11:10:12.024Z,38.79
2023-04-21T11:13:17.498Z,40.01
2023-04-21T11:16:21.036Z,38.20
2023-04-21T11:19:25.533Z,38.24
2023-04-21T11:22:28.557Z,37.83
2023-04-21T11:25:31.604Z,38.96
2023-04-21T11:28:34.358Z,39.84
2023-04-21T11:31:38.698Z,39.20
2023-04-21T11:34:42.097Z,37.25
2023-04-21T11:37:44.897Z,39.32
2023-04-21T11:40:51.544Z,38.23
2023-04-21T11:43:54.430Z,37.80
2023-04-21T11:46:57.033Z,37.87
2023-04-21T11:50:02.046Z,39.75
2023-04-21T11:53:04.789Z,37.78
2023-04-21T11:56:07.769Z,39.22
2023-04-21T11:59:16.001Z,36.91
2023-04-21T12:02:27.007Z,36.28
2023-04-21T12:05:36.866Z,35.87
2023-04-21T12:08:41.275Z,37.67
2023-04-21T12:11:48.401Z,39.73
2023-04-21T12:14:52.665Z,38.80
2023-04-21T12:17:57.358Z,38.54
2023-04-21T12:21:02.172Z,36.44
2023-04-21T12:24:05.593Z,38.93
2023-04-21T12:27:14.284Z,39.22
2023-04-21T12:30:17.597Z,39.09
2023-04-21T12:33:20.483Z,39.31
2023-04-21T12:36:23.631Z,38.54
2023-04-21T12:39:26.554Z,38.10
2023-04-21T12:42:29.272Z,38.64
2023-04-21T12:45:33.098Z,37.94
2023-04-21T12:48:36.040Z,38.24
2023-04-21T12:51:38.743Z,37.91
2023-04-21T12:54:42.235Z,37.89
2023-04-21T12:57:45.304Z,38.85
2023-04-21T13:00:48.047Z,39.10
2023-04-21T13:03:50.998Z,38.52
2023-04-21T13:06:53.901Z,39.49
2023-04-21T13:09:56.908Z,38.68
2023-04-21T13:13:00.127Z,37.45
2023-04-21T13:16:03.067Z,34.47
2023-04-21T13:19:05.942Z,34.16
2023-04-21T13:22:08.824Z,34.16
2023-04-21T13:25:12.049Z,35.83
2023-04-21T13:28:15.057Z,36.52
2023-04-21T13:31:17.884Z,38.31
2023-04-21T13:34:20.649Z,37.35
2023-04-21T13:37:23.609Z,36.39
2023-04-21T13:40:26.553Z,38.38
2023-04-21T13:43:29.417Z,38.57
2023-04-21T13:46:32.384Z,36.08
2023-04-21T13:49:35.823Z,38.18
2023-04-21T13:52:38.663Z,37.73
2023-04-21T13:55:42.229Z,38.43
2023-04-21T13:58:45.273Z,39.35
2023-04-21T14:01:48.581Z,38.37
2023-04-21T14:04:53.016Z,38.51
2023-04-21T14:07:56.226Z,38.62
2023-04-21T14:10:59.219Z,39.22
2023-04-21T14:14:09.688Z,39.08
2023-04-21T14:17:13.149Z,39.13
2023-04-21T14:20:15.925Z,40.23
2023-04-21T14:23:18.874Z,40.70
2023-04-21T14:26:21.843Z,40.02
2023-04-21T14:29:24.636Z,39.05
2023-04-21T14:32:28.000Z,38.11
2023-04-21T14:35:30.872Z,39.28
2023-04-21T14:38:34.233Z,38.57
2023-04-21T14:41:36.956Z,39.26
2023-04-21T14:44:39.819Z,38.74
2023-04-21T14:47:43.205Z,39.28
2023-04-21T14:50:46.017Z,40.19
2023-04-21T14:53:51.702Z,40.06
2023-04-21T14:57:10.373Z,38.87
2023-04-21T15:00:20.077Z,38.72
2023-04-21T15:03:23.077Z,39.62
2023-04-21T15:06:28.520Z,39.16
2023-04-21T15:09:34.202Z,38.44
2023-04-21T15:12:37.763Z,38.45
2023-04-21T15:15:41.467Z,39.79
2023-04-21T15:18:44.162Z,39.30
2023-04-21T15:21:49.217Z,38.60
2023-04-21T15:24:54.374Z,39.66
2023-04-21T15:27:57.430Z,39.52
2023-04-21T15:31:00.283Z,39.94
2023-04-21T15:34:05.594Z,40.45
2023-04-21T15:37:08.438Z,39.93
2023-04-21T15:40:11.396Z,41.05
2023-04-21T15:43:14.204Z,40.36
2023-04-21T15:46:16.976Z,40.17
2023-04-21T15:49:20.028Z,41.18
2023-04-21T15:52:22.787Z,39.93
2023-04-21T15:55:28.041Z,41.00
2023-04-21T15:58:31.222Z,38.77
2023-04-21T16:01:34.558Z,40.31
2023-04-21T16:04:40.841Z,40.84
2023-04-21T16:07:44.499Z,40.70
2023-04-21T16:10:47.349Z,40.67
2023-04-21T16:13:50.158Z,40.73
2023-04-21T16:16:53.114Z,40.55
2023-04-21T16:19:56.070Z,39.03
2023-04-21T16:22:59.557Z,40.32
2023-04-21T16:26:02.728Z,40.35
2023-04-21T16:29:05.774Z,40.41
2023-04-21T16:32:08.729Z,41.55
2023-04-21T16:35:11.879Z,41.77
2023-04-21T16:38:15.141Z,41.24
2023-04-21T16:41:20.835Z,42.57
2023-04-21T16:44:24.045Z,42.03
2023-04-21T16:47:27.211Z,42.27
2023-04-21T16:50:30.268Z,41.71
2023-04-21T16:53:38.811Z,43.24
2023-04-21T16:56:45.396Z,44.11
2023-04-21T16:59:48.437Z,43.54
2023-04-21T17:02:51.460Z,43.69
2023-04-21T17:05:54.851Z,44.38
2023-04-21T17:09:00.130Z,45.15
2023-04-21T17:12:04.018Z,45.19
2023-04-21T17:15:07.875Z,46.56
2023-04-21T17:18:11.098Z,46.56
2023-04-21T17:21:14.077Z,46.29
2023-04-21T17:24:17.241Z,48.02
2023-04-21T17:27:20.240Z,48.28
2023-04-21T17:30:23.823Z,48.57
2023-04-21T17:33:26.604Z,48.60
2023-04-21T17:36:29.819Z,49.78
2023-04-21T17:39:33.311Z,49.47
2023-04-21T17:42:36.446Z,50.17
2023-04-21T17:45:39.460Z,49.90
2023-04-21T17:48:42.654Z,50.08
2023-04-21T17:51:45.475Z,51.70
2023-04-21T17:54:48.345Z,50.69
2023-04-21T17:57:51.071Z,49.65
2023-04-21T18:00:54.110Z,49.76
2023-04-21T18:04:00.599Z,49.64
2023-04-21T18:07:03.926Z,50.16
2023-04-21T18:10:08.065Z,49.80
2023-04-21T18:13:10.897Z,49.08
2023-04-21T18:16:14.412Z,49.74
2023-04-21T18:19:18.790Z,50.16
2023-04-21T18:22:24.078Z,48.08
2023-04-21T18:25:40.802Z,49.70
2023-04-21T18:28:44.832Z,47.70
2023-04-21T18:31:47.856Z,49.02
2023-04-21T18:34:50.800Z,49.58
2023-04-21T18:37:53.784Z,50.94
2023-04-21T18:40:56.787Z,50.27
2023-04-21T18:43:59.465Z,49.69
2023-04-21T18:47:02.353Z,49.29
2023-04-21T18:50:05.715Z,49.25
2023-04-21T18:53:09.307Z,49.59
2023-04-21T18:56:12.415Z,50.15
2023-04-21T18:59:15.103Z,49.83
2023-04-21T19:02:18.150Z,49.51
2023-04-21T19:05:20.918Z,50.88
2023-04-21T19:08:34.187Z,50.75
2023-04-21T19:11:44.069Z,50.82
2023-04-21T19:14:47.813Z,51.31
2023-04-21T19:17:51.046Z,52.31
2023-04-21T19:20:53.756Z,52.27
2023-04-21T19:23:58.088Z,53.03
2023-04-21T19:27:05.844Z,53.03
2023-04-21T19:30:09.486Z,52.88
2023-04-21T19:33:12.583Z,52.74
2023-04-21T19:36:15.464Z,52.36
2023-04-21T19:39:20.323Z,52.98
2023-04-21T19:42:25.704Z,53.16
2023-04-21T19:45:28.663Z,54.31
2023-04-21T19:48:31.750Z,54.24
2023-04-21T19:51:34.741Z,53.46
2023-04-21T19:54:37.869Z,53.48
2023-04-21T19:57:40.867Z,53.03
2023-04-21T20:00:44.008Z,54.02
2023-04-21T20:03:48.113Z,55.16
2023-04-21T20:06:51.209Z,55.06
2023-04-21T20:09:54.186Z,55.71
2023-04-21T20:12:57.126Z,55.30
2023-04-21T20:16:00.146Z,55.28
2023-04-21T20:19:04.817Z,54.87
2023-04-21T20:22:08.462Z,54.39
2023-04-21T20:25:11.200Z,53.94
2023-04-21T20:28:14.207Z,54.23
2023-04-21T20:31:19.298Z,53.90
2023-04-21T20:34:22.343Z,55.71
2023-04-21T20:37:25.508Z,56.00
2023-04-21T20:40:28.348Z,57.22
2023-04-21T20:43:34.599Z,57.20
2023-04-21T20:46:37.605Z,57.71
2023-04-21T20:49:40.770Z,56.85
2023-04-21T20:52:43.776Z,56.95
2023-04-21T20:55:47.454Z,56.84
2023-04-21T20:58:50.456Z,56.54
2023-04-21T21:01:53.483Z,56.37
2023-04-21T21:04:56.851Z,56.00
2023-04-21T21:07:59.827Z,56.11
2023-04-21T21:11:02.649Z,55.71
2023-04-21T21:14:05.541Z,55.86
2023-04-21T21:17:08.720Z,56.23
2023-04-21T21:20:11.932Z,55.67
2023-04-21T21:23:14.660Z,55.88
2023-04-21T21:26:17.526Z,56.61
2023-04-21T21:29:20.765Z,56.92
2023-04-21T21:32:23.722Z,57.07
2023-04-21T21:35:26.610Z,56.94
2023-04-21T21:38:29.478Z,56.93
2023-04-21T21:41:32.476Z,56.60
2023-04-21T21:44:36.723Z,56.89
2023-04-21T21:47:42.945Z,57.08
2023-04-21T21:50:47.743Z,57.14
2023-04-21T21:53:50.451Z,57.85
2023-04-21T21:56:53.504Z,58.27
2023-04-21T21:59:56.478Z,59.27
2023-04-21T22:02:59.475Z,58.77
2023-04-21T22:06:02.299Z,57.92
2023-04-21T22:09:05.501Z,57.67
2023-04-21T22:12:08.412Z,56.72
2023-04-21T22:15:11.674Z,56.82
2023-04-21T22:18:14.466Z,56.78
2023-04-21T22:21:17.204Z,56.85
2023-04-21T22:24:19.921Z,56.36
2023-04-21T22:27:22.608Z,56.50
2023-04-21T22:30:26.269Z,56.59
2023-04-21T22:33:29.042Z,56.55
2023-04-21T22:36:32.999Z,56.73
2023-04-21T22:39:37.681Z,57.66
2023-04-21T22:42:40.780Z,58.22
2023-04-21T22:45:43.512Z,58.41
2023-04-21T22:48:46.803Z,58.48
2023-04-21T22:51:50.677Z,59.20
2023-04-21T22:54:53.822Z,58.06
2023-04-21T22:57:56.677Z,58.64
2023-04-21T23:00:59.536Z,58.92
2023-04-21T23:04:02.361Z,58.93
2023-04-21T23:07:05.705Z,58.72
2023-04-21T23:10:08.531Z,59.40
2023-04-21T23:13:11.438Z,59.71
2023-04-21T23:16:14.183Z,60.13
2023-04-21T23:19:16.995Z,59.96
2023-04-21T23:22:19.698Z,59.39
2023-04-21T23:25:22.365Z,59.09
2023-04-21T23:28:25.429Z,58.61
2023-04-21T23:31:28.266Z,59.20
2023-04-21T23:34:30.968Z,58.64
2023-04-21T23:37:33.809Z,60.17
2023-04-21T23:40:39.126Z,61.05
2023-04-21T23:43:41.858Z,60.63
2023-04-21T23:46:44.591Z,60.13
2023-04-21T23:49:47.300Z,59.36
2023-04-21T23:52:50.116Z,59.66
2023-04-21T23:55:53.182Z,59.41
2023-04-21T23:58:55.966Z,59.37
